Time;durP1;ratioP1;P1;durP2;ratioP2;P2;SDS_P1;SDS_P2;PMS_P1;PMS_P2;Temp;Humidity;BMP_temperature;BMP_pressure;BME280_temperature;BME280_humidity;BME280_pressure;Samples;Min_cycle;Max_cycle;Signal;HPM_P1;HPM_P2
2022/09/26 00:01:35;;;;;;;;;;;14.20;99.90;;;;;;4180870;28;20011;-57
2022/09/26 00:03:57;;;;;;;;;;;14.20;99.90;;;;;;4180844;28;20020;-57
2022/09/26 00:06:18;;;;;;;;;;;14.20;99.90;;;;;;4180711;28;20021;-57
2022/09/26 00:08:39;;;;;;;;;;;14.20;99.90;;;;;;4180736;28;19935;-57
2022/09/26 00:11:00;;;;;;;;;;;14.20;99.90;;;;;;4180696;28;19998;-58
2022/09/26 00:13:20;;;;;;;;;;;14.20;99.90;;;;;;4180607;28;20484;-57
2022/09/26 00:15:40;;;;;;;;;;;14.20;99.90;;;;;;4180768;28;19983;-57
2022/09/26 00:18:00;;;;;;;;;;;14.20;99.90;;;;;;4180604;28;19932;-57
2022/09/26 00:20:20;;;;;;;;;;;14.20;99.90;;;;;;4180543;28;19979;-57
2022/09/26 00:22:40;;;;;;;;;;;14.20;99.90;;;;;;4180763;28;19990;-57
2022/09/26 00:25:00;;;;;;;;;;;14.30;99.90;;;;;;4180488;28;19931;-57
2022/09/26 00:27:21;;;;;;;;;;;14.30;99.90;;;;;;4180859;28;20383;-58
2022/09/26 00:29:41;;;;;;;;;;;14.30;99.90;;;;;;4180607;28;19936;-58
2022/09/26 00:32:01;;;;;;;;;;;14.30;99.90;;;;;;4180622;28;20392;-57
2022/09/26 00:34:22;;;;;;;;;;;14.30;99.90;;;;;;4180363;28;19990;-58
2022/09/26 00:36:42;;;;;;;;;;;14.30;99.90;;;;;;4180177;28;20304;-57
2022/09/26 00:39:02;;;;;;;;;;;14.30;99.90;;;;;;4180617;28;20387;-57
2022/09/26 00:41:23;;;;;;;;;;;14.30;99.90;;;;;;4193910;28;19983;-57
2022/09/26 00:43:51;;;;;;;;;;;14.40;99.90;;;;;;4184639;28;20043;-58
2022/09/26 00:46:30;;;;;;;;;;;14.40;99.90;;;;;;4185725;28;19943;-57
2022/09/26 00:49:14;;;;;;;;;;;14.40;99.90;;;;;;4185868;28;19931;-57
2022/09/26 00:51:38;;;;;;;;;;;14.40;99.90;;;;;;4185878;28;19935;-57
2022/09/26 00:53:59;;;;;;;;;;;14.40;99.90;;;;;;4185967;28;19999;-57
2022/09/26 00:56:25;;;;;;;;;;;14.40;99.90;;;;;;4186074;28;19954;-57
2022/09/26 00:58:49;;;;;;;;;;;14.50;99.90;;;;;;4184758;28;19935;-57
2022/09/26 01:01:10;;;;;;;;;;;14.40;99.90;;;;;;4185465;28;20438;-57
2022/09/26 01:03:30;;;;;;;;;;;14.50;99.90;;;;;;4186106;28;20016;-57
2022/09/26 01:05:51;;;;;;;;;;;14.50;99.90;;;;;;4185596;28;19975;-57
2022/09/26 01:08:13;;;;;;;;;;;14.50;99.90;;;;;;4185677;28;20450;-57
2022/09/26 01:10:35;;;;;;;;;;;14.50;99.90;;;;;;4185805;28;19982;-57
2022/09/26 01:13:00;;;;;;;;;;;14.50;99.90;;;;;;4186048;28;19957;-57
2022/09/26 01:15:20;;;;;;;;;;;14.50;99.90;;;;;;4186047;28;19975;-58
2022/09/26 01:17:42;;;;;;;;;;;14.50;99.90;;;;;;4185555;28;19958;-57
2022/09/26 01:20:05;;;;;;;;;;;14.50;99.90;;;;;;4185853;28;20292;-57
2022/09/26 01:22:29;;;;;;;;;;;14.50;99.90;;;;;;4185635;28;19935;-57
2022/09/26 01:24:53;;;;;;;;;;;14.50;99.90;;;;;;4185791;28;19979;-57
2022/09/26 01:27:22;;;;;;;;;;;14.60;99.90;;;;;;4185466;28;20014;-57
2022/09/26 01:29:58;;;;;;;;;;;14.60;99.90;;;;;;4185734;28;20008;-57
2022/09/26 01:32:47;;;;;;;;;;;14.60;99.90;;;;;;4185663;28;20002;-57
2022/09/26 01:35:14;;;;;;;;;;;14.60;99.90;;;;;;4185322;28;19931;-57
2022/09/26 01:37:37;;;;;;;;;;;14.50;99.90;;;;;;4201538;28;19990;-57
2022/09/26 01:40:01;;;;;;;;;;;14.40;99.90;;;;;;4189621;28;19935;-57
2022/09/26 01:42:27;;;;;;;;;;;14.40;99.90;;;;;;4185598;28;19935;-57
2022/09/26 01:44:53;;;;;;;;;;;14.40;99.90;;;;;;4185791;28;19932;-57
2022/09/26 01:47:17;;;;;;;;;;;14.40;99.90;;;;;;4190827;28;19958;-57
2022/09/26 01:49:40;;;;;;;;;;;14.50;99.90;;;;;;4188906;28;19932;-57
2022/09/26 01:52:06;;;;;;;;;;;14.50;99.90;;;;;;4185540;28;19932;-58
2022/09/26 01:54:29;;;;;;;;;;;14.40;99.90;;;;;;4183760;28;19998;-57
2022/09/26 01:56:51;;;;;;;;;;;14.30;99.90;;;;;;4182777;28;19935;-57
2022/09/26 01:59:15;;;;;;;;;;;14.30;99.90;;;;;;4182951;28;19936;-57
2022/09/26 02:01:38;;;;;;;;;;;14.20;99.90;;;;;;4182551;28;20399;-57
2022/09/26 02:04:02;;;;;;;;;;;14.40;99.90;;;;;;4182995;28;19932;-57
2022/09/26 02:06:55;;;;;;;;;;;14.50;99.90;;;;;;4182744;28;19931;-57
2022/09/26 02:09:17;;;;;;;;;;;14.50;99.90;;;;;;4157136;28;20030;-57
2022/09/26 02:11:39;;;;;;;;;;;14.50;99.90;;;;;;4182481;28;20503;-57
2022/09/26 02:14:05;;;;;;;;;;;14.50;99.90;;;;;;4186394;28;20323;-57
2022/09/26 02:16:37;;;;;;;;;;;14.50;99.90;;;;;;4199201;28;19931;-57
2022/09/26 02:19:19;;;;;;;;;;;14.50;99.90;;;;;;4182773;28;19932;-57
2022/09/26 02:21:39;;;;;;;;;;;14.50;99.90;;;;;;4161438;28;19975;-57
2022/09/26 02:24:00;;;;;;;;;;;14.50;99.90;;;;;;4182722;28;19948;-57
2022/09/26 02:26:22;;;;;;;;;;;14.50;99.90;;;;;;4182075;28;19967;-57
2022/09/26 02:28:42;;;;;;;;;;;14.50;99.90;;;;;;4182533;28;20415;-57
2022/09/26 02:31:06;;;;;;;;;;;14.50;99.90;;;;;;4182060;28;19931;-57
2022/09/26 02:33:29;;;;;;;;;;;14.50;99.90;;;;;;4189082;28;19974;-57
2022/09/26 02:35:53;;;;;;;;;;;14.50;99.90;;;;;;4182121;28;19931;-57
2022/09/26 02:38:13;;;;;;;;;;;14.40;99.90;;;;;;4182220;28;20038;-58
2022/09/26 02:40:37;;;;;;;;;;;14.50;99.90;;;;;;4182051;28;19986;-57
2022/09/26 02:43:10;;;;;;;;;;;14.40;99.90;;;;;;4182317;28;20391;-58
2022/09/26 02:45:51;;;;;;;;;;;14.00;99.90;;;;;;4182179;28;20020;-57
2022/09/26 02:48:28;;;;;;;;;;;14.00;99.90;;;;;;4195607;28;19978;-57
2022/09/26 02:51:06;;;;;;;;;;;13.90;99.90;;;;;;4182151;28;19974;-58
2022/09/26 02:53:42;;;;;;;;;;;13.80;99.90;;;;;;4181842;28;20354;-57
2022/09/26 02:56:08;;;;;;;;;;;13.80;99.90;;;;;;4181917;28;19936;-58
2022/09/26 02:58:41;;;;;;;;;;;13.80;99.90;;;;;;4181851;28;19932;-57
2022/09/26 03:01:01;;;;;;;;;;;13.70;99.90;;;;;;4182079;28;20396;-57
2022/09/26 03:03:30;;;;;;;;;;;13.80;99.90;;;;;;4181935;28;19975;-57
2022/09/26 03:05:53;;;;;;;;;;;13.80;99.90;;;;;;4181067;28;19983;-57
2022/09/26 03:08:16;;;;;;;;;;;13.90;99.90;;;;;;4181658;28;20331;-57
2022/09/26 03:10:37;;;;;;;;;;;13.90;99.90;;;;;;4181934;28;19932;-57
2022/09/26 03:13:00;;;;;;;;;;;13.90;99.90;;;;;;4181617;28;20335;-57
2022/09/26 03:15:20;;;;;;;;;;;13.90;99.90;;;;;;4181488;28;20423;-57
2022/09/26 03:17:42;;;;;;;;;;;13.80;99.90;;;;;;4181389;28;19982;-57
2022/09/26 03:20:10;;;;;;;;;;;13.80;99.90;;;;;;4181638;28;19974;-57
2022/09/26 03:22:30;;;;;;;;;;;13.80;99.90;;;;;;4181473;28;19970;-57
2022/09/26 03:24:50;;;;;;;;;;;13.80;99.90;;;;;;4181504;28;20020;-57
2022/09/26 03:27:12;;;;;;;;;;;13.80;99.90;;;;;;4181240;28;19975;-57
2022/09/26 03:29:32;;;;;;;;;;;13.80;99.90;;;;;;4193276;28;19931;-57
2022/09/26 03:31:53;;;;;;;;;;;13.80;99.90;;;;;;4198131;28;19935;-58
2022/09/26 03:34:14;;;;;;;;;;;13.80;99.90;;;;;;4198230;28;20013;-57
2022/09/26 03:36:34;;;;;;;;;;;13.80;99.90;;;;;;4197632;28;20133;-57
2022/09/26 03:38:55;;;;;;;;;;;13.80;99.90;;;;;;4197754;28;20398;-57
2022/09/26 03:41:15;;;;;;;;;;;13.80;99.90;;;;;;4197732;28;19978;-58
2022/09/26 03:43:35;;;;;;;;;;;13.70;99.90;;;;;;4197728;28;20331;-57
2022/09/26 03:45:56;;;;;;;;;;;13.70;99.90;;;;;;4198172;28;19935;-57
2022/09/26 03:48:16;;;;;;;;;;;13.70;99.90;;;;;;4197116;28;19932;-57
2022/09/26 03:50:36;;;;;;;;;;;13.70;99.90;;;;;;4197911;28;19931;-57
2022/09/26 03:52:57;;;;;;;;;;;13.60;99.90;;;;;;4197654;28;19932;-57
2022/09/26 03:55:17;;;;;;;;;;;13.50;99.90;;;;;;4197501;28;20346;-57
2022/09/26 03:57:37;;;;;;;;;;;13.50;99.90;;;;;;4197524;28;19931;-57
2022/09/26 03:59:58;;;;;;;;;;;13.50;99.90;;;;;;4197706;28;20353;-57
2022/09/26 04:02:19;;;;;;;;;;;13.50;99.90;;;;;;4197695;28;19978;-57
2022/09/26 04:04:40;;;;;;;;;;;13.40;99.90;;;;;;4197645;28;19978;-57
2022/09/26 04:07:00;;;;;;;;;;;13.40;99.90;;;;;;4197390;28;20372;-58
2022/09/26 04:09:22;;;;;;;;;;;13.40;99.90;;;;;;4197246;28;19936;-57
2022/09/26 04:11:42;;;;;;;;;;;13.30;99.90;;;;;;4197652;28;19974;-58
2022/09/26 04:14:03;;;;;;;;;;;13.30;99.90;;;;;;4197484;28;19971;-57
2022/09/26 04:16:23;;;;;;;;;;;13.30;99.90;;;;;;4197280;28;20004;-57
2022/09/26 04:18:44;;;;;;;;;;;13.30;99.90;;;;;;4180752;28;20006;-57
2022/09/26 04:21:09;;;;;;;;;;;13.30;99.90;;;;;;4165760;28;19960;-57
2022/09/26 04:23:30;;;;;;;;;;;13.30;99.90;;;;;;4180402;28;20064;-57
2022/09/26 04:25:51;;;;;;;;;;;13.30;99.90;;;;;;4192918;28;19932;-57
2022/09/26 04:28:11;;;;;;;;;;;13.30;99.90;;;;;;4181994;28;20024;-57
2022/09/26 04:30:31;;;;;;;;;;;13.30;99.90;;;;;;4180380;28;19940;-57
2022/09/26 04:32:51;;;;;;;;;;;13.30;99.90;;;;;;4181255;28;19971;-57
2022/09/26 04:35:12;;;;;;;;;;;13.30;99.90;;;;;;4180378;28;19935;-57
2022/09/26 04:37:35;;;;;;;;;;;13.40;99.90;;;;;;4180459;28;19931;-57
2022/09/26 04:39:56;;;;;;;;;;;13.50;99.90;;;;;;4180637;28;19935;-57
2022/09/26 04:42:16;;;;;;;;;;;13.50;99.90;;;;;;4187136;28;19935;-57
2022/09/26 04:44:37;;;;;;;;;;;13.50;99.90;;;;;;4183999;28;19935;-59
2022/09/26 04:46:57;;;;;;;;;;;13.50;99.90;;;;;;4183932;28;20020;-60
2022/09/26 04:49:17;;;;;;;;;;;13.50;99.90;;;;;;4191779;28;19936;-60
2022/09/26 04:51:37;;;;;;;;;;;13.50;99.90;;;;;;4180641;28;19932;-59
2022/09/26 04:53:58;;;;;;;;;;;13.50;99.90;;;;;;4180369;28;20394;-60
2022/09/26 04:56:19;;;;;;;;;;;13.50;99.90;;;;;;4180340;28;19938;-60
2022/09/26 04:58:43;;;;;;;;;;;13.50;99.90;;;;;;4180154;28;20456;-60
2022/09/26 05:01:04;;;;;;;;;;;13.50;99.90;;;;;;4180828;28;19948;-60
2022/09/26 05:03:25;;;;;;;;;;;13.50;99.90;;;;;;4180300;28;19931;-60
2022/09/26 05:05:49;;;;;;;;;;;13.50;99.90;;;;;;4180227;28;19932;-60
2022/09/26 05:08:10;;;;;;;;;;;13.60;99.90;;;;;;4180468;28;19940;-60
2022/09/26 05:10:31;;;;;;;;;;;13.50;99.90;;;;;;4185001;28;19991;-60
2022/09/26 05:12:52;;;;;;;;;;;13.50;99.90;;;;;;4186559;28;19939;-60
2022/09/26 05:15:12;;;;;;;;;;;13.50;99.90;;;;;;4188296;28;19936;-60
2022/09/26 05:17:33;;;;;;;;;;;13.40;99.90;;;;;;4179953;28;19982;-60
2022/09/26 05:19:54;;;;;;;;;;;13.30;99.90;;;;;;4180394;28;19936;-59
2022/09/26 05:22:15;;;;;;;;;;;13.30;99.90;;;;;;4193425;28;20288;-59
2022/09/26 05:27:16;;;;;;;;;;;13.30;99.90;;;;;;4180034;28;19932;-60
2022/09/26 05:29:36;;;;;;;;;;;13.30;99.90;;;;;;4180638;28;20024;-59
2022/09/26 05:31:58;;;;;;;;;;;13.10;99.90;;;;;;4182724;28;20000;-60
2022/09/26 05:34:19;;;;;;;;;;;13.10;99.90;;;;;;4183245;28;20063;-60
2022/09/26 05:36:41;;;;;;;;;;;13.10;99.90;;;;;;4182967;28;20271;-60
2022/09/26 05:39:03;;;;;;;;;;;13.20;99.90;;;;;;4185454;28;20024;-60
2022/09/26 05:41:25;;;;;;;;;;;13.10;99.90;;;;;;4185224;28;19932;-60
2022/09/26 05:43:46;;;;;;;;;;;13.10;99.90;;;;;;4183142;28;19939;-60
2022/09/26 05:46:08;;;;;;;;;;;13.20;99.90;;;;;;4182938;28;19936;-60
2022/09/26 05:48:31;;;;;;;;;;;13.10;99.90;;;;;;4199108;28;19934;-60
2022/09/26 05:50:52;;;;;;;;;;;13.00;99.90;;;;;;4186760;28;20031;-59
2022/09/26 05:53:12;;;;;;;;;;;13.10;99.90;;;;;;4183221;28;19935;-60
2022/09/26 05:55:33;;;;;;;;;;;13.10;99.90;;;;;;4183043;28;19975;-60
2022/09/26 05:57:57;;;;;;;;;;;13.10;99.90;;;;;;4187695;28;19983;-59
2022/09/26 06:00:18;;;;;;;;;;;13.10;99.90;;;;;;4182821;28;19979;-59
2022/09/26 06:02:39;;;;;;;;;;;13.20;99.90;;;;;;4173284;28;20100;-59
2022/09/26 06:05:00;;;;;;;;;;;13.30;99.90;;;;;;4199554;28;20011;-59
2022/09/26 06:07:21;;;;;;;;;;;13.30;99.90;;;;;;4183133;28;20410;-59
2022/09/26 06:09:42;;;;;;;;;;;13.30;99.90;;;;;;4182687;28;19936;-60
2022/09/26 06:12:03;;;;;;;;;;;13.30;99.90;;;;;;4182923;28;19967;-59
2022/09/26 06:14:25;;;;;;;;;;;13.30;99.90;;;;;;4182717;28;19932;-60
2022/09/26 06:16:45;;;;;;;;;;;13.30;99.90;;;;;;4182792;28;19975;-59
2022/09/26 06:19:06;;;;;;;;;;;13.40;99.90;;;;;;4182534;28;19932;-60
2022/09/26 06:21:28;;;;;;;;;;;13.40;99.90;;;;;;4182309;28;20427;-59
2022/09/26 06:23:48;;;;;;;;;;;13.40;99.90;;;;;;4167856;28;19936;-59
2022/09/26 06:26:13;;;;;;;;;;;13.60;99.90;;;;;;4182515;28;19979;-59
2022/09/26 06:28:35;;;;;;;;;;;13.70;99.90;;;;;;4182421;28;19932;-59
2022/09/26 06:30:56;;;;;;;;;;;13.70;99.90;;;;;;4167758;28;19931;-60
2022/09/26 06:33:16;;;;;;;;;;;13.70;99.90;;;;;;4182377;28;19931;-59
2022/09/26 06:35:37;;;;;;;;;;;13.80;99.90;;;;;;4181839;28;19932;-59
2022/09/26 06:37:58;;;;;;;;;;;13.80;99.90;;;;;;4182266;28;19943;-59
2022/09/26 06:40:18;;;;;;;;;;;13.80;99.90;;;;;;4182422;28;19940;-60
2022/09/26 06:42:39;;;;;;;;;;;13.90;99.90;;;;;;4167371;28;20296;-59
2022/09/26 06:45:00;;;;;;;;;;;13.90;99.90;;;;;;4182420;28;19931;-60
2022/09/26 06:47:21;;;;;;;;;;;14.00;99.90;;;;;;4168567;28;20396;-59
2022/09/26 06:49:44;;;;;;;;;;;14.10;99.90;;;;;;4182434;28;19931;-60
2022/09/26 06:52:04;;;;;;;;;;;14.10;99.90;;;;;;4167080;28;19932;-59
2022/09/26 06:54:25;;;;;;;;;;;14.20;99.90;;;;;;4182232;28;19975;-59
2022/09/26 06:56:45;;;;;;;;;;;14.30;99.90;;;;;;4181730;28;19974;-60
2022/09/26 06:59:05;;;;;;;;;;;14.30;99.90;;;;;;4181983;28;19947;-60
2022/09/26 07:01:26;;;;;;;;;;;14.30;99.90;;;;;;4181573;28;20411;-60
2022/09/26 07:03:47;;;;;;;;;;;14.30;99.90;;;;;;4181997;28;20024;-59
2022/09/26 07:06:07;;;;;;;;;;;14.40;99.90;;;;;;4181703;28;19975;-59
2022/09/26 07:08:29;;;;;;;;;;;14.40;99.90;;;;;;4181861;28;20028;-59
2022/09/26 07:11:10;;;;;;;;;;;14.50;99.90;;;;;;4182053;28;20026;-59
2022/09/26 07:13:51;;;;;;;;;;;14.50;99.90;;;;;;4181998;28;20386;-59
2022/09/26 07:16:12;;;;;;;;;;;14.60;99.90;;;;;;4181769;28;20011;-59
2022/09/26 07:18:32;;;;;;;;;;;14.70;99.90;;;;;;4181659;28;20458;-59
2022/09/26 07:20:55;;;;;;;;;;;14.70;99.90;;;;;;4182037;28;19964;-60
2022/09/26 07:23:16;;;;;;;;;;;14.80;99.90;;;;;;4166703;28;19962;-59
2022/09/26 07:25:38;;;;;;;;;;;14.80;99.90;;;;;;4181389;28;19932;-59
2022/09/26 07:27:59;;;;;;;;;;;14.70;99.90;;;;;;4181748;28;20039;-59
2022/09/26 07:30:19;;;;;;;;;;;14.80;99.90;;;;;;4181648;28;20401;-59
2022/09/26 07:32:46;;;;;;;;;;;14.90;99.90;;;;;;4181346;28;19931;-59
2022/09/26 07:35:07;;;;;;;;;;;14.80;99.90;;;;;;4181331;28;19935;-59
2022/09/26 07:37:28;;;;;;;;;;;14.90;99.90;;;;;;4181970;28;19936;-59
2022/09/26 07:39:50;;;;;;;;;;;14.90;99.90;;;;;;4181431;28;19958;-59
2022/09/26 07:42:16;;;;;;;;;;;14.90;99.90;;;;;;4181234;28;19932;-60
2022/09/26 07:44:36;;;;;;;;;;;14.90;99.90;;;;;;4181145;28;19974;-59
2022/09/26 07:50:15;;;;;;;;;;;15.20;99.90;;;;;;4181325;28;19971;-59
2022/09/26 07:52:39;;;;;;;;;;;15.30;99.90;;;;;;4180455;28;20381;-59
2022/09/26 07:54:59;;;;;;;;;;;15.40;99.90;;;;;;4181171;28;19935;-59
2022/09/26 07:57:20;;;;;;;;;;;15.50;99.90;;;;;;4180985;28;19931;-59
2022/09/26 07:59:40;;;;;;;;;;;15.60;99.90;;;;;;4180893;28;19932;-59
2022/09/26 08:02:02;;;;;;;;;;;15.70;99.90;;;;;;4180823;28;19931;-59
2022/09/26 08:04:23;;;;;;;;;;;15.70;99.90;;;;;;4181189;28;20291;-59
2022/09/26 08:06:43;;;;;;;;;;;15.90;99.90;;;;;;4181058;28;19971;-59
2022/09/26 08:09:04;;;;;;;;;;;16.00;99.90;;;;;;4181098;28;19932;-59
2022/09/26 08:11:26;;;;;;;;;;;16.00;99.90;;;;;;4180665;28;20028;-59
2022/09/26 08:13:46;;;;;;;;;;;15.90;99.90;;;;;;4186385;28;19938;-59
2022/09/26 08:16:08;;;;;;;;;;;16.10;99.90;;;;;;4196402;28;19954;-58
2022/09/26 08:18:29;;;;;;;;;;;16.10;99.90;;;;;;4180977;28;19971;-58
2022/09/26 08:20:49;;;;;;;;;;;16.20;99.90;;;;;;4180789;28;20008;-58
2022/09/26 08:23:10;;;;;;;;;;;16.30;99.90;;;;;;4180835;28;19932;-58
2022/09/26 08:25:30;;;;;;;;;;;16.40;99.90;;;;;;4180686;28;19931;-58
2022/09/26 08:27:52;;;;;;;;;;;16.50;99.90;;;;;;4180979;28;19932;-59
2022/09/26 08:30:13;;;;;;;;;;;16.50;99.90;;;;;;4180726;28;19935;-58
2022/09/26 08:32:34;;;;;;;;;;;16.50;99.90;;;;;;4180368;28;19947;-58
2022/09/26 08:34:55;;;;;;;;;;;16.40;99.90;;;;;;4181057;28;19936;-58
2022/09/26 08:37:16;;;;;;;;;;;16.50;99.90;;;;;;4180662;28;19931;-58
2022/09/26 08:39:36;;;;;;;;;;;16.50;99.90;;;;;;4180485;28;20419;-58
2022/09/26 08:42:18;;;;;;;;;;;16.60;99.90;;;;;;4180292;28;20331;-58
2022/09/26 08:44:40;;;;;;;;;;;16.70;99.90;;;;;;4180887;28;20489;-59
2022/09/26 08:47:16;;;;;;;;;;;16.80;99.90;;;;;;4184441;28;19977;-59
2022/09/26 08:49:43;;;;;;;;;;;16.90;99.90;;;;;;4182935;28;19931;-56
2022/09/26 08:52:07;;;;;;;;;;;16.80;99.90;;;;;;4180616;28;19970;-57
2022/09/26 08:54:28;;;;;;;;;;;16.90;99.90;;;;;;4180383;28;20316;-56
2022/09/26 08:56:55;;;;;;;;;;;17.10;99.90;;;;;;4180478;28;19932;-56
2022/09/26 08:59:24;;;;;;;;;;;17.30;99.90;;;;;;4180386;28;19932;-56
2022/09/26 09:01:46;;;;;;;;;;;17.30;99.90;;;;;;4180348;28;19936;-56
2022/09/26 09:04:13;;;;;;;;;;;17.20;99.90;;;;;;4183844;28;20314;-56
2022/09/26 09:06:34;;;;;;;;;;;17.40;99.90;;;;;;4200189;28;19970;-56
2022/09/26 09:08:55;;;;;;;;;;;17.50;99.90;;;;;;4184766;28;19936;-56
2022/09/26 09:11:18;;;;;;;;;;;17.20;99.90;;;;;;4190830;28;19935;-55
2022/09/26 09:13:39;;;;;;;;;;;17.30;99.90;;;;;;4183852;28;19936;-55
2022/09/26 09:16:06;;;;;;;;;;;17.50;99.90;;;;;;4183527;28;19931;-55
2022/09/26 09:18:42;;;;;;;;;;;17.60;99.90;;;;;;4307444;22;21367;-83
2022/09/26 09:21:16;;;;;;;;;;;17.50;99.90;;;;;;4179657;28;20583;-83
2022/09/26 09:26:08;;;;;;;;;;;17.60;99.90;;;;;;3914057;22;19946;-61
2022/09/26 09:28:52;;;;;;;;;;;17.80;99.90;;;;;;4228998;28;19935;-60
2022/09/26 09:31:13;;;;;;;;;;;18.00;99.90;;;;;;4229465;28;19932;-61
2022/09/26 09:33:40;;;;;;;;;;;18.10;99.90;;;;;;4230489;28;19934;-60
2022/09/26 09:36:16;;;;;;;;;;;18.00;99.90;;;;;;4217860;28;20016;-60
2022/09/26 09:38:37;;;;;;;;;;;18.00;99.90;;;;;;4225042;28;20014;-60
2022/09/26 09:41:00;;;;;;;;;;;18.10;99.90;;;;;;4224964;28;19934;-60
2022/09/26 09:43:39;;;;;;;;;;;18.10;99.90;;;;;;4228828;28;19984;-57
2022/09/26 09:46:25;;;;;;;;;;;18.20;99.90;;;;;;4221480;28;19930;-58
2022/09/26 09:48:46;;;;;;;;;;;18.30;99.90;;;;;;4231136;28;19934;-58
2022/09/26 09:51:06;;;;;;;;;;;18.40;99.90;;;;;;4217691;28;20019;-58
2022/09/26 09:53:27;;;;;;;;;;;18.70;99.90;;;;;;4233234;28;20286;-56
2022/09/26 09:56:07;;;;;;;;;;;19.00;99.90;;;;;;4233038;28;19938;-58
2022/09/26 09:58:46;;;;;;;;;;;19.10;99.90;;;;;;4224760;28;19931;-56
2022/09/26 10:01:16;;;;;;;;;;;19.10;99.90;;;;;;4223396;28;19967;-57
2022/09/26 10:03:58;;;;;;;;;;;19.30;99.90;;;;;;4229752;28;19930;-56
2022/09/26 10:06:18;;;;;;;;;;;19.40;99.90;;;;;;4227833;28;20413;-57
2022/09/26 10:09:04;;;;;;;;;;;19.60;99.90;;;;;;4215973;28;20294;-56
2022/09/26 10:11:44;;;;;;;;;;;19.70;99.90;;;;;;4223821;28;19935;-57
2022/09/26 10:14:14;;;;;;;;;;;19.80;99.90;;;;;;4226919;28;19930;-58
2022/09/26 10:16:35;;;;;;;;;;;19.70;99.90;;;;;;4220612;28;19935;-58
2022/09/26 10:19:00;;;;;;;;;;;19.50;99.90;;;;;;4223366;28;20378;-57
2022/09/26 10:21:27;;;;;;;;;;;19.70;99.90;;;;;;4221021;28;19939;-58
2022/09/26 10:23:49;;;;;;;;;;;19.80;99.90;;;;;;4222690;28;19934;-57
2022/09/26 10:26:10;;;;;;;;;;;19.90;99.90;;;;;;4210743;28;20043;-57
2022/09/26 10:28:45;;;;;;;;;;;20.10;99.90;;;;;;4210244;28;19982;-58
2022/09/26 10:31:07;;;;;;;;;;;20.20;99.90;;;;;;4212431;28;19934;-57
2022/09/26 10:33:29;;;;;;;;;;;20.30;99.90;;;;;;4209848;28;20024;-57
2022/09/26 10:35:51;;;;;;;;;;;20.30;99.90;;;;;;4204754;28;19932;-57
2022/09/26 10:38:19;;;;;;;;;;;20.60;99.90;;;;;;4211317;28;19934;-57
2022/09/26 10:40:49;;;;;;;;;;;20.40;99.90;;;;;;4208433;28;20460;-58
2022/09/26 10:43:29;;;;;;;;;;;20.50;99.90;;;;;;4212242;28;20294;-57
2022/09/26 10:45:54;;;;;;;;;;;20.20;99.90;;;;;;4207678;28;19953;-57
2022/09/26 10:48:20;;;;;;;;;;;19.90;99.90;;;;;;4209028;28;19931;-57
2022/09/26 10:50:46;;;;;;;;;;;20.30;99.90;;;;;;4213750;28;20011;-57
2022/09/26 10:53:08;;;;;;;;;;;20.10;99.90;;;;;;4206381;28;19931;-57
2022/09/26 10:55:31;;;;;;;;;;;20.30;99.90;;;;;;4206720;28;19931;-57
2022/09/26 10:57:57;;;;;;;;;;;20.30;99.90;;;;;;4205026;28;19935;-57
2022/09/26 11:00:20;;;;;;;;;;;20.50;99.90;;;;;;4214266;28;19931;-57
2022/09/26 11:02:45;;;;;;;;;;;20.80;99.90;;;;;;4202001;28;19935;-57
2022/09/26 11:07:46;;;;;;;;;;;20.70;99.90;;;;;;4198762;28;19982;-56
2022/09/26 11:10:09;;;;;;;;;;;20.80;99.90;;;;;;4202675;28;19954;-57
2022/09/26 11:12:33;;;;;;;;;;;20.80;99.90;;;;;;4207149;28;20007;-57
2022/09/26 11:14:57;;;;;;;;;;;20.80;99.90;;;;;;4199730;28;20374;-57
2022/09/26 11:17:18;;;;;;;;;;;20.90;99.90;;;;;;4207398;28;20564;-57
2022/09/26 11:19:44;;;;;;;;;;;21.00;99.90;;;;;;4209327;28;19934;-57
2022/09/26 11:22:10;;;;;;;;;;;20.90;99.90;;;;;;4198379;28;19935;-57
2022/09/26 11:24:36;;;;;;;;;;;21.20;99.90;;;;;;4212798;28;19930;-57
2022/09/26 11:27:05;;;;;;;;;;;21.30;99.90;;;;;;4205598;28;19982;-57
2022/09/26 11:29:38;;;;;;;;;;;21.30;99.90;;;;;;4199434;28;19981;-56
2022/09/26 11:31:58;;;;;;;;;;;21.10;99.90;;;;;;4214592;28;19947;-57
2022/09/26 11:34:25;;;;;;;;;;;20.90;99.90;;;;;;4197916;28;19931;-57
2022/09/26 11:36:51;;;;;;;;;;;20.90;99.90;;;;;;4197546;28;20393;-57
2022/09/26 11:39:32;;;;;;;;;;;21.10;99.90;;;;;;4200482;28;20406;-57
2022/09/26 11:42:12;;;;;;;;;;;21.20;99.90;;;;;;4183101;28;19931;-57
2022/09/26 11:44:32;;;;;;;;;;;21.30;99.90;;;;;;4197886;28;20325;-57
2022/09/26 11:46:52;;;;;;;;;;;21.20;99.90;;;;;;4212095;28;19974;-57
2022/09/26 11:49:22;;;;;;;;;;;21.30;99.90;;;;;;4206020;28;19989;-57
2022/09/26 11:51:59;;;;;;;;;;;21.20;99.90;;;;;;4199495;28;19970;-57
2022/09/26 11:54:31;;;;;;;;;;;21.50;99.90;;;;;;4213798;28;20007;-57
2022/09/26 11:56:55;;;;;;;;;;;21.30;99.90;;;;;;4203648;28;20290;-57
2022/09/26 11:59:18;;;;;;;;;;;21.10;99.90;;;;;;4203277;28;19936;-57
2022/09/26 12:01:41;;;;;;;;;;;21.10;99.90;;;;;;4204165;28;19935;-57
2022/09/26 12:04:29;;;;;;;;;;;21.20;99.90;;;;;;4207371;28;19998;-57
2022/09/26 12:07:02;;;;;;;;;;;21.20;99.90;;;;;;4178990;28;20095;-57
2022/09/26 12:09:34;;;;;;;;;;;21.10;99.90;;;;;;4210683;28;19935;-57
2022/09/26 12:12:09;;;;;;;;;;;21.00;99.90;;;;;;4210287;28;19973;-56
2022/09/26 12:14:49;;;;;;;;;;;21.10;99.90;;;;;;4201168;28;19951;-56
2022/09/26 12:17:13;;;;;;;;;;;21.50;99.90;;;;;;4207570;28;19970;-55
2022/09/26 12:19:46;;;;;;;;;;;21.80;99.90;;;;;;4204889;28;19939;-57
2022/09/26 12:22:27;;;;;;;;;;;21.90;99.90;;;;;;4196991;28;20031;-57
2022/09/26 12:24:55;;;;;;;;;;;21.80;99.90;;;;;;4209109;28;20486;-57
2022/09/26 12:27:25;;;;;;;;;;;21.70;99.90;;;;;;4207671;28;19978;-58
2022/09/26 12:29:52;;;;;;;;;;;21.50;99.90;;;;;;4197310;28;19977;-57
2022/09/26 12:32:24;;;;;;;;;;;21.60;99.90;;;;;;4213826;28;19970;-56
2022/09/26 12:34:53;;;;;;;;;;;21.80;99.90;;;;;;4198053;28;19934;-57
2022/09/26 12:37:38;;;;;;;;;;;22.20;99.90;;;;;;4206676;28;19977;-57
2022/09/26 12:40:01;;;;;;;;;;;22.30;99.90;;;;;;4207043;28;19931;-57
2022/09/26 12:42:31;;;;;;;;;;;22.40;99.90;;;;;;4183701;28;19935;-57
2022/09/26 12:45:05;;;;;;;;;;;22.20;99.90;;;;;;4210597;28;19934;-56
2022/09/26 12:47:25;;;;;;;;;;;22.20;99.90;;;;;;4205479;28;19935;-56
2022/09/26 12:49:57;;;;;;;;;;;22.20;99.90;;;;;;4205604;28;19979;-57
2022/09/26 12:52:35;;;;;;;;;;;22.00;99.90;;;;;;4198723;28;19934;-55
2022/09/26 12:55:14;;;;;;;;;;;21.90;99.90;;;;;;4213626;28;19974;-57
2022/09/26 12:57:59;;;;;;;;;;;21.90;99.90;;;;;;4197145;28;19935;-57
2022/09/26 13:00:21;;;;;;;;;;;21.90;99.90;;;;;;4186848;28;19967;-56
2022/09/26 13:03:11;;;;;;;;;;;21.60;99.90;;;;;;4204307;28;20349;-57
2022/09/26 13:05:32;;;;;;;;;;;21.20;99.90;;;;;;4195415;28;20007;-56
2022/09/26 13:07:56;;;;;;;;;;;21.00;99.90;;;;;;4196752;28;19978;-56
2022/09/26 13:10:35;;;;;;;;;;;20.90;99.90;;;;;;4196201;28;19931;-56
2022/09/26 13:12:56;;;;;;;;;;;20.50;99.90;;;;;;4196437;28;19932;-56
2022/09/26 13:15:22;;;;;;;;;;;20.30;99.90;;;;;;4204159;28;20287;-55
2022/09/26 13:17:45;;;;;;;;;;;20.60;99.90;;;;;;4212253;28;19931;-56
2022/09/26 13:20:16;;;;;;;;;;;20.50;99.90;;;;;;4196797;28;19970;-56
2022/09/26 13:22:40;;;;;;;;;;;20.30;99.90;;;;;;4212395;28;19942;-56
2022/09/26 13:25:09;;;;;;;;;;;20.30;99.90;;;;;;4204089;28;19931;-56
2022/09/26 13:27:35;;;;;;;;;;;20.20;99.90;;;;;;4199894;28;19970;-56
2022/09/26 13:30:23;;;;;;;;;;;20.40;99.90;;;;;;4213519;28;20337;-56
2022/09/26 13:33:06;;;;;;;;;;;20.40;99.90;;;;;;4196843;28;19934;-57
2022/09/26 13:35:29;;;;;;;;;;;20.20;99.90;;;;;;4212619;28;19977;-57
2022/09/26 13:38:09;;;;;;;;;;;20.10;99.90;;;;;;4203902;28;19959;-57
2022/09/26 13:40:38;;;;;;;;;;;20.00;99.90;;;;;;4201270;28;19934;-56
2022/09/26 13:43:07;;;;;;;;;;;20.30;99.90;;;;;;4213474;28;20001;-56
2022/09/26 13:45:35;;;;;;;;;;;20.50;99.90;;;;;;4213126;28;19994;-56
2022/09/26 13:48:03;;;;;;;;;;;20.60;99.90;;;;;;4211092;28;19973;-56
2022/09/26 13:50:42;;;;;;;;;;;20.70;99.90;;;;;;4205433;28;19978;-56
2022/09/26 13:53:05;;;;;;;;;;;20.90;99.90;;;;;;4199283;28;19982;-56
2022/09/26 13:55:28;;;;;;;;;;;20.80;99.90;;;;;;4199746;28;20434;-55
2022/09/26 13:58:09;;;;;;;;;;;20.90;99.90;;;;;;4215769;28;19938;-57
2022/09/26 14:00:29;;;;;;;;;;;20.90;99.90;;;;;;4199974;28;19978;-56
2022/09/26 14:03:17;;;;;;;;;;;21.10;99.90;;;;;;4204213;28;19931;-55
2022/09/26 14:05:42;;;;;;;;;;;21.40;99.90;;;;;;4214101;28;19972;-56
2022/09/26 14:11:07;;;;;;;;;;;20.90;99.90;;;;;;4199088;28;20041;-56
2022/09/26 14:13:32;;;;;;;;;;;21.00;99.90;;;;;;4212982;28;19969;-56
2022/09/26 14:15:57;;;;;;;;;;;21.00;99.90;;;;;;4208393;28;19970;-56
2022/09/26 14:18:37;;;;;;;;;;;20.50;99.90;;;;;;4184304;28;19932;-55